Weather at Francisco de Sá Carneiro Airport

Public forecast

Using degrees Celsius for public forecast. Weather courtesy of forecast.io.

Current aviation weather report (METAR) for Francisco de Sá Carneiro Airport

Retrieved 2021/04/19 06:00 UTC (5 minutes ago):

LPPR 190600Z 00000KT 9000 4000S FEW012 SCT020 13/12 Q1019

Aviation forecast (TAF) for Francisco de Sá Carneiro Airport

Retrieved 2021/04/19 06:18 UTC (0 seconds ago):

TAF LPPR 190500Z 1906/2006 VRB02KT 9999 SCT015 TEMPO 1906/1909 5000 -RA BR SCT004 BKN008 BECMG 1909/1912 23008KT SCT035 BECMG 1913/1915 30010KT BECMG 1918/1921 VRB02KT SCT015 TEMPO 1918/2006 5000 -RA SCT004 BKN008